Time;durP1;ratioP1;P1;durP2;ratioP2;P2;SDS_P1;SDS_P2;PMS_P1;PMS_P2;Temp;Humidity;BMP_temperature;BMP_pressure;BME280_temperature;BME280_humidity;BME280_pressure;Samples;Min_cycle;Max_cycle;Signal;HPM_P1;HPM_P2
2022/05/26 00:00:32;;;;;;;7.00;6.70;;;;;;;21.42;65.78;100778.22;4994831;28;20026;-60
2022/05/26 00:02:57;;;;;;;7.20;6.90;;;;;;;21.47;65.60;100775.72;4995017;28;20022;-60
2022/05/26 00:05:24;;;;;;;7.35;7.00;;;;;;;21.49;65.69;100776.38;4994759;28;20110;-60
2022/05/26 00:07:49;;;;;;;7.30;7.00;;;;;;;21.52;65.44;100773.28;4994997;28;20038;-60
2022/05/26 00:10:14;;;;;;;7.25;6.95;;;;;;;21.52;65.27;100776.03;4994676;28;20331;-60
2022/05/26 00:12:40;;;;;;;7.40;7.10;;;;;;;21.56;65.06;100777.31;4994885;28;20026;-60
2022/05/26 00:15:06;;;;;;;8.13;7.82;;;;;;;21.56;64.72;100774.59;4994826;28;20109;-60
2022/05/26 00:17:32;;;;;;;7.00;6.70;;;;;;;21.58;64.96;100781.53;4994482;28;20029;-60
2022/05/26 00:19:58;;;;;;;7.18;6.88;;;;;;;21.59;64.61;100783.25;4994767;28;20018;-59
2022/05/26 00:22:24;;;;;;;7.80;7.32;;;;;;;21.57;64.19;100773.53;4993894;28;20401;-60
2022/05/26 00:24:49;;;;;;;7.18;6.88;;;;;;;21.59;64.14;100766.81;4994493;28;20030;-60
2022/05/26 00:27:15;;;;;;;6.80;6.50;;;;;;;21.62;63.64;100765.59;4993159;28;20498;-60
2022/05/26 00:29:40;;;;;;;7.35;7.05;;;;;;;21.63;63.37;100770.84;4994308;28;20029;-60
2022/05/26 00:32:07;;;;;;;7.05;6.75;;;;;;;21.63;64.53;100764.53;4994447;28;20381;-60
2022/05/26 00:34:33;;;;;;;7.45;7.15;;;;;;;21.62;63.44;100769.16;4994246;28;20470;-60
2022/05/26 00:36:58;;;;;;;6.85;6.55;;;;;;;21.66;63.69;100768.78;4993099;28;20069;-60
2022/05/26 00:39:25;;;;;;;7.10;6.80;;;;;;;21.66;62.94;100760.56;4993998;28;20027;-60
2022/05/26 00:41:56;;;;;;;6.90;6.60;;;;;;;21.65;63.20;100756.13;4994539;28;20072;-60
2022/05/26 00:44:23;;;;;;;7.30;7.00;;;;;;;21.66;63.24;100758.69;4994595;28;20030;-60
2022/05/26 00:46:54;;;;;;;7.00;6.70;;;;;;;21.68;63.09;100756.63;4994206;28;20145;-61
2022/05/26 00:49:34;;;;;;;7.30;7.00;;;;;;;21.67;62.88;100765.88;4993908;28;20026;-60
2022/05/26 00:51:59;;;;;;;6.97;6.68;;;;;;;21.67;62.21;100760.41;4994023;28;20019;-60
2022/05/26 00:54:26;;;;;;;6.93;6.63;;;;;;;21.66;62.17;100758.69;4994104;28;20036;-60
2022/05/26 00:57:08;;;;;;;8.05;7.75;;;;;;;21.66;61.88;100757.84;4992774;28;20029;-60
2022/05/26 00:59:46;;;;;;;6.90;6.60;;;;;;;21.67;62.47;100752.19;4993724;28;20025;-60
2022/05/26 01:02:13;;;;;;;7.75;7.45;;;;;;;21.69;62.61;100750.09;4993896;28;20084;-60
2022/05/26 01:04:53;;;;;;;7.10;6.80;;;;;;;21.69;61.77;100752.84;4993727;28;20052;-60
2022/05/26 01:07:24;;;;;;;7.15;6.85;;;;;;;21.71;62.13;100750.75;4993680;28;20034;-61
2022/05/26 01:09:49;;;;;;;7.30;7.00;;;;;;;21.69;62.03;100747.38;4993608;28;20023;-60
2022/05/26 01:12:15;;;;;;;7.18;6.88;;;;;;;21.68;62.59;100748.41;4993595;28;20072;-61
2022/05/26 01:14:46;;;;;;;7.30;7.00;;;;;;;21.69;61.70;100747.38;4993705;28;20022;-60
2022/05/26 01:17:39;;;;;;;7.50;7.20;;;;;;;21.70;61.45;100746.31;4993550;28;20018;-60
2022/05/26 01:20:25;;;;;;;7.18;6.88;;;;;;;21.70;61.82;100738.13;4993611;28;20029;-60
2022/05/26 01:23:24;;;;;;;7.20;6.80;;;;;;;21.70;62.14;100740.84;4993387;28;20054;-60
2022/05/26 01:26:02;;;;;;;7.10;6.80;;;;;;;21.70;61.81;100738.13;4993577;28;20034;-59
2022/05/26 01:29:05;;;;;;;6.90;6.60;;;;;;;21.69;61.34;100730.94;4993330;28;20026;-60
2022/05/26 01:31:59;;;;;;;7.00;6.70;;;;;;;21.68;60.89;100734.72;4991952;28;20195;-60
2022/05/26 01:34:30;;;;;;;6.80;6.50;;;;;;;21.71;61.26;100731.59;4992513;28;20034;-60
2022/05/26 01:37:07;;;;;;;7.10;6.80;;;;;;;21.68;60.98;100723.78;4991998;28;20806;-60
2022/05/26 01:39:45;;;;;;;7.20;6.90;;;;;;;21.72;61.74;100725.09;4993193;28;20109;-60
2022/05/26 01:42:20;;;;;;;7.10;6.80;;;;;;;21.69;61.21;100725.47;4992826;28;20390;-60
2022/05/26 01:44:56;;;;;;;6.65;6.40;;;;;;;21.68;61.72;100715.59;4993212;28;20026;-60
2022/05/26 01:47:45;;;;;;;6.95;6.65;;;;;;;21.70;61.83;100713.50;4991780;28;20463;-60
2022/05/26 01:50:29;;;;;;;7.00;6.70;;;;;;;21.70;61.72;100718.97;4971176;28;20042;-61
2022/05/26 01:53:01;;;;;;;7.13;6.82;;;;;;;21.65;61.46;100718.69;4971364;28;20493;-60
2022/05/26 01:55:47;;;;;;;7.22;6.93;;;;;;;21.68;61.17;100704.63;4971134;28;20046;-60
2022/05/26 01:58:21;;;;;;;7.22;6.82;;;;;;;21.68;61.64;100710.13;4955252;28;20030;-60
2022/05/26 02:00:47;;;;;;;6.90;6.60;;;;;;;21.68;61.03;100701.91;4971306;28;20487;-60
2022/05/26 02:03:17;;;;;;;6.93;6.60;;;;;;;21.69;61.01;100705.47;4971209;28;20042;-60
2022/05/26 02:05:47;;;;;;;7.30;7.00;;;;;;;21.67;61.10;100710.28;4971243;28;20177;-60
2022/05/26 02:08:23;;;;;;;7.15;6.85;;;;;;;21.69;60.86;100698.13;4971177;28;20047;-60
2022/05/26 02:11:15;;;;;;;7.28;6.97;;;;;;;21.67;60.54;100694.75;4971301;28;20208;-60
2022/05/26 02:13:46;;;;;;;6.82;6.53;;;;;;;21.67;61.12;100686.53;4970472;28;20045;-60
2022/05/26 02:16:26;;;;;;;7.32;7.03;;;;;;;21.67;61.12;100683.78;4971161;28;20408;-61
2022/05/26 02:19:02;;;;;;;7.75;7.35;;;;;;;21.68;61.18;100685.50;4971188;28;20034;-61
2022/05/26 02:21:39;;;;;;;7.10;6.80;;;;;;;21.72;61.45;100678.56;4970674;28;20051;-60
2022/05/26 02:24:36;;;;;;;6.80;6.50;;;;;;;21.69;60.60;100681.72;4971136;28;20030;-60
2022/05/26 02:27:02;;;;;;;7.22;6.93;;;;;;;21.68;60.90;100671.81;4968787;28;20045;-60
2022/05/26 02:32:11;;;;;;;6.90;6.60;;;;;;;21.68;60.44;100662.75;4992863;28;20080;-60
2022/05/26 02:34:40;;;;;;;7.10;6.70;;;;;;;21.69;60.74;100658.97;4993264;28;20034;-61
2022/05/26 02:37:07;;;;;;;7.05;6.75;;;;;;;21.70;61.61;100658.78;4992796;28;20034;-60
2022/05/26 02:39:33;;;;;;;6.90;6.60;;;;;;;21.68;61.05;100649.91;4993138;28;20062;-59
2022/05/26 02:41:59;;;;;;;6.70;6.40;;;;;;;21.67;61.01;100640.03;4992802;28;20105;-60
2022/05/26 02:44:28;;;;;;;6.75;6.45;;;;;;;21.63;60.74;100644.16;4992834;28;20026;-60
2022/05/26 02:47:33;;;;;;;7.00;6.70;;;;;;;21.60;61.42;100644.56;4996458;28;20076;-60
2022/05/26 02:50:18;;;;;;;6.95;6.55;;;;;;;21.63;61.40;100642.28;4996308;28;20065;-60
2022/05/26 02:53:16;;;;;;;7.43;7.13;;;;;;;21.67;61.06;100640.03;4996304;28;20037;-60
2022/05/26 02:56:15;;;;;;;6.80;6.50;;;;;;;21.69;61.29;100632.47;4996138;28;20026;-60
2022/05/26 02:58:57;;;;;;;6.75;6.45;;;;;;;21.66;61.30;100635.56;4996110;28;20505;-60
2022/05/26 03:01:29;;;;;;;7.20;6.88;;;;;;;21.65;60.94;100625.66;4996210;28;20413;-60
2022/05/26 03:04:02;;;;;;;7.10;6.80;;;;;;;21.64;61.21;100632.19;4994820;28;20161;-60
2022/05/26 03:06:37;;;;;;;7.10;6.80;;;;;;;21.65;60.87;100625.66;4995897;28;20034;-60
2022/05/26 03:09:05;;;;;;;7.00;6.70;;;;;;;21.69;61.29;100629.72;4995924;28;20359;-60
2022/05/26 03:11:48;;;;;;;7.18;6.88;;;;;;;21.69;61.40;100616.03;4995752;28;20032;-60
2022/05/26 03:14:14;;;;;;;6.88;6.57;;;;;;;21.67;61.47;100609.94;4994590;28;20048;-60
2022/05/26 03:16:41;;;;;;;6.80;6.50;;;;;;;21.68;61.35;100610.78;4995765;28;20478;-60
2022/05/26 03:19:06;;;;;;;6.90;6.60;;;;;;;21.68;61.43;100605.31;4995817;28;20415;-60
2022/05/26 03:21:32;;;;;;;7.00;6.70;;;;;;;21.66;62.08;100610.94;4996612;28;20043;-60
2022/05/26 03:23:57;;;;;;;7.10;6.80;;;;;;;21.69;61.85;100612.47;4995641;28;20107;-60
2022/05/26 03:26:22;;;;;;;6.85;6.45;;;;;;;21.68;61.65;100600.69;4995507;28;20478;-60
2022/05/26 03:28:47;;;;;;;6.80;6.50;;;;;;;21.71;62.01;100597.53;4995603;28;20029;-60
2022/05/26 03:31:13;;;;;;;6.88;6.47;;;;;;;21.67;61.94;100596.25;4995489;28;20029;-60
2022/05/26 03:42:00;;;;;;;6.90;6.60;;;;;;;21.68;62.00;100587.00;4973593;28;20034;-60
2022/05/26 03:44:28;;;;;;;6.63;6.32;;;;;;;21.71;62.31;100583.00;4973307;28;20039;-60
2022/05/26 03:46:53;;;;;;;7.00;6.60;;;;;;;21.70;62.49;100584.06;4973512;28;20034;-60
2022/05/26 03:49:19;;;;;;;7.20;6.90;;;;;;;21.67;62.16;100579.84;4973277;28;20039;-60
2022/05/26 03:51:44;;;;;;;7.20;6.80;;;;;;;21.68;62.18;100573.31;4973359;28;20030;-60
2022/05/26 03:54:09;;;;;;;7.03;6.72;;;;;;;21.66;62.63;100569.91;4973286;28;20026;-60
2022/05/26 03:56:35;;;;;;;6.80;6.50;;;;;;;21.65;62.72;100560.00;4972421;28;20035;-60
2022/05/26 03:59:00;;;;;;;7.15;6.85;;;;;;;21.72;62.91;100563.66;4973282;28;20431;-60
2022/05/26 04:01:27;;;;;;;8.55;8.25;;;;;;;21.72;62.89;100560.06;4973072;28;20462;-60
2022/05/26 04:03:52;;;;;;;0.10;0.10;;;;;;;22.26;60.99;100557.47;4973153;28;20391;-60
2022/05/26 04:06:18;;;;;;;0.85;0.10;;;;;;;22.57;60.90;100547.88;4973035;28;20026;-61
2022/05/26 04:08:43;;;;;;;0.17;0.10;;;;;;;22.79;60.42;100552.16;4973057;28;20081;-60
2022/05/26 04:11:09;;;;;;;0.10;0.10;;;;;;;22.98;60.72;100540.41;4972955;28;20035;-60
2022/05/26 04:13:34;;;;;;;0.32;0.10;;;;;;;23.13;60.66;100542.09;4973294;28;20363;-60
2022/05/26 04:16:00;;;;;;;0.13;0.13;;;;;;;23.26;60.85;100522.91;4986726;28;20046;-60
2022/05/26 04:18:25;;;;;;;0.10;0.10;;;;;;;23.39;61.33;100525.66;4994560;28;20093;-60
2022/05/26 04:20:51;;;;;;;0.13;0.13;;;;;;;23.52;62.34;100525.66;4994544;28;20489;-60
2022/05/26 04:23:16;;;;;;;0.20;0.20;;;;;;;23.62;62.91;100526.06;4994543;28;20022;-60
2022/05/26 04:25:41;;;;;;;0.10;0.10;;;;;;;23.73;63.39;100518.25;4994464;28;20065;-60
2022/05/26 04:28:07;;;;;;;0.10;0.00;;;;;;;23.82;63.81;100520.53;4993238;28;20030;-60
2022/05/26 04:30:32;;;;;;;0.25;0.10;;;;;;;23.94;63.81;100518.81;4994303;28;20462;-60
2022/05/26 04:32:58;;;;;;;0.10;0.10;;;;;;;24.01;63.67;100516.88;4994388;28;20218;-59
2022/05/26 04:35:24;;;;;;;0.30;0.22;;;;;;;24.09;63.88;100504.84;4994247;28;20449;-60
2022/05/26 04:37:50;;;;;;;0.20;0.20;;;;;;;24.20;64.71;100509.66;4994265;28;20109;-60
2022/05/26 04:40:15;;;;;;;0.28;0.10;;;;;;;23.91;64.38;100499.19;4994261;28;20057;-59
2022/05/26 04:42:41;;;;;;;0.00;0.00;;;;;;;23.38;63.91;100502.03;4992999;28;20458;-60
2022/05/26 04:45:10;;;;;;;0.10;0.10;;;;;;;23.17;62.46;100499.50;4994250;28;20462;-60
2022/05/26 04:47:36;;;;;;;0.25;0.10;;;;;;;22.92;58.96;100497.41;4993984;28;20117;-60
2022/05/26 04:50:02;;;;;;;0.50;0.13;;;;;;;22.69;58.29;100492.28;4994022;28;20117;-60
2022/05/26 04:52:28;;;;;;;0.20;0.10;;;;;;;22.47;57.49;100494.31;4993859;28;20030;-60
2022/05/26 04:54:53;;;;;;;0.10;0.10;;;;;;;22.44;55.57;100502.97;4994049;28;20026;-60
2022/05/26 04:57:21;;;;;;;0.22;0.10;;;;;;;22.33;55.07;100494.50;4994001;28;20037;-59
2022/05/26 04:59:47;;;;;;;0.52;0.10;;;;;;;22.19;55.89;100497.22;4994187;28;20034;-60
2022/05/26 05:02:15;;;;;;;0.13;0.13;;;;;;;22.20;54.68;100487.09;4993913;28;20034;-60
2022/05/26 05:04:42;;;;;;;0.20;0.03;;;;;;;22.13;54.45;100488.94;4993919;28;20030;-59
2022/05/26 05:07:09;;;;;;;0.25;0.15;;;;;;;22.11;54.88;100482.84;4994028;28;20030;-60
2022/05/26 05:09:36;;;;;;;0.10;0.10;;;;;;;22.17;54.79;100484.75;4992298;28;20026;-59
2022/05/26 05:12:02;;;;;;;0.38;0.00;;;;;;;22.07;54.61;100481.56;4993822;28;20034;-60
2022/05/26 05:14:29;;;;;;;0.13;0.10;;;;;;;22.12;55.34;100473.56;4993465;28;20469;-60
2022/05/26 05:16:55;;;;;;;0.10;0.10;;;;;;;21.96;54.91;100473.91;4993665;28;20062;-60
2022/05/26 05:19:20;;;;;;;0.22;0.10;;;;;;;22.03;55.34;100472.91;4993531;28;20046;-59
2022/05/26 05:21:59;;;;;;;0.50;0.10;;;;;;;22.02;54.48;100473.09;4992191;28;20093;-60
2022/05/26 05:24:33;;;;;;;0.52;0.10;;;;;;;21.98;54.99;100461.69;4993375;28;20026;-60
2022/05/26 05:27:04;;;;;;;0.60;0.28;;;;;;;21.95;54.55;100466.72;4993572;28;20038;-60
2022/05/26 05:29:33;;;;;;;1.65;0.03;;;;;;;22.04;55.10;100465.53;4993128;28;20030;-59
2022/05/26 05:32:04;;;;;;;0.15;0.15;;;;;;;21.96;55.46;100462.94;4993441;28;20026;-59
2022/05/26 05:34:36;;;;;;;0.15;0.15;;;;;;;21.99;55.43;100457.06;4993095;28;20478;-60
2022/05/26 05:37:01;;;;;;;0.10;0.10;;;;;;;21.99;53.94;100459.78;4993371;28;20104;-59
2022/05/26 05:39:27;;;;;;;0.10;0.10;;;;;;;21.96;54.92;100458.31;4993216;28;20101;-60
2022/05/26 05:41:54;;;;;;;0.52;0.10;;;;;;;21.93;54.69;100456.84;4993307;28;20022;-59
2022/05/26 05:44:20;;;;;;;0.63;0.22;;;;;;;21.97;54.48;100451.78;4993223;28;20030;-60
2022/05/26 05:46:54;;;;;;;0.40;0.25;;;;;;;22.03;54.74;100447.41;4993201;28;20574;-60
2022/05/26 05:49:22;;;;;;;;;;;;;;;22.04;54.60;100443.63;4993522;28;20110;-60
2022/05/26 05:51:48;;;;;;;0.10;0.10;;;;;;;22.00;54.85;100440.44;4993213;28;20281;-60
2022/05/26 05:54:13;;;;;;;0.50;0.25;;;;;;;21.95;54.70;100428.41;4993179;28;20026;-60
2022/05/26 05:56:39;;;;;;;0.20;0.20;;;;;;;22.01;54.65;100435.81;4994056;28;20370;-60
2022/05/26 05:59:05;;;;;;;0.50;0.17;;;;;;;21.97;54.41;100437.25;4993145;28;20054;-60
2022/05/26 06:01:31;;;;;;;0.30;0.10;;;;;;;21.92;54.54;100446.94;4992971;28;20497;-60
2022/05/26 06:03:56;;;;;;;0.30;0.28;;;;;;;21.99;54.24;100440.63;4993013;28;20027;-59
2022/05/26 06:06:21;;;;;;;0.10;0.10;;;;;;;22.01;55.52;100430.34;4993008;28;20025;-60
2022/05/26 06:08:47;;;;;;;1.70;0.20;;;;;;;22.04;54.78;100427.19;4993030;28;20026;-59
2022/05/26 06:11:12;;;;;;;0.30;0.17;;;;;;;21.99;55.50;100421.47;4992999;28;20030;-60
2022/05/26 06:13:37;;;;;;;0.08;0.08;;;;;;;21.97;54.25;100423.59;4992909;28;20018;-60
2022/05/26 06:16:03;;;;;;;0.90;0.17;;;;;;;21.95;55.29;100417.47;4993071;28;20022;-60
2022/05/26 06:18:28;;;;;;;0.10;0.10;;;;;;;21.95;54.84;100414.75;4992713;28;20034;-59
2022/05/26 06:21:05;;;;;;;0.22;0.00;;;;;;;21.93;54.05;100421.25;4995113;28;20030;-60
2022/05/26 06:23:30;;;;;;;0.50;0.10;;;;;;;21.98;55.50;100414.31;4996982;28;20022;-59
2022/05/26 06:25:57;;;;;;;0.65;0.10;;;;;;;21.92;54.68;100408.63;4995798;28;20537;-59
2022/05/26 06:31:07;;;;;;;0.00;0.00;;;;;;;22.02;55.09;100399.19;4996716;28;20033;-59
2022/05/26 06:39:01;;;;;;;0.00;0.00;;;;;;;22.01;54.95;100384.66;4996477;28;20037;-60
2022/05/26 06:44:10;;;;;;;0.20;0.15;;;;;;;21.95;54.93;100388.22;4996972;28;20079;-59
2022/05/26 06:46:36;;;;;;;0.32;0.10;;;;;;;22.08;55.46;100384.72;4996691;28;20038;-60
2022/05/26 06:49:01;;;;;;;0.00;0.00;;;;;;;22.03;55.51;100381.72;4996319;28;20022;-60
2022/05/26 06:51:29;;;;;;;1.27;0.20;;;;;;;22.04;54.63;100380.66;4996158;28;20393;-60
2022/05/26 06:53:54;;;;;;;0.20;0.10;;;;;;;21.99;54.84;100380.44;4996560;28;20462;-59
2022/05/26 06:56:20;;;;;;;0.13;0.03;;;;;;;21.98;54.78;100373.25;4996116;28;20061;-59
2022/05/26 06:58:46;;;;;;;0.20;0.10;;;;;;;21.92;55.17;100370.31;4996328;28;20053;-59
2022/05/26 07:01:14;;;;;;;0.45;0.13;;;;;;;21.95;55.67;100369.06;4996104;28;20049;-61
2022/05/26 07:03:40;;;;;;;0.10;0.10;;;;;;;22.04;56.99;100361.50;4995983;28;20068;-60
2022/05/26 07:06:12;;;;;;;0.10;0.10;;;;;;;22.04;54.50;100361.50;4996129;28;20061;-59
2022/05/26 07:08:38;;;;;;;0.60;0.35;;;;;;;22.05;55.55;100363.22;4995858;28;20148;-60
2022/05/26 07:11:03;;;;;;;0.00;0.00;;;;;;;22.03;54.96;100366.13;4995937;28;20101;-59
2022/05/26 07:13:29;;;;;;;0.40;0.20;;;;;;;22.02;55.18;100358.97;4995819;28;20030;-59
2022/05/26 07:15:54;;;;;;;0.70;0.30;;;;;;;22.02;54.27;100358.13;4995899;28;20029;-59
2022/05/26 07:18:19;;;;;;;0.10;0.10;;;;;;;21.98;54.76;100357.69;4995710;28;20374;-60
2022/05/26 07:20:45;;;;;;;0.60;0.00;;;;;;;22.06;54.66;100351.22;4995767;28;20041;-59
2022/05/26 07:23:10;;;;;;;0.20;0.10;;;;;;;22.01;54.93;100353.72;4995635;28;20505;-60
2022/05/26 07:25:43;;;;;;;0.10;0.10;;;;;;;21.99;55.70;100353.06;4994483;28;20029;-59
2022/05/26 07:28:08;;;;;;;0.22;0.10;;;;;;;22.01;54.89;100342.78;4995680;28;20122;-59
2022/05/26 07:30:33;;;;;;;0.25;0.10;;;;;;;21.99;56.29;100342.94;4995400;28;20043;-59
2022/05/26 07:32:59;;;;;;;0.08;0.08;;;;;;;22.00;54.28;100343.78;4993737;28;20262;-60
2022/05/26 07:35:24;;;;;;;1.30;0.30;;;;;;;22.02;54.96;100338.97;4995355;28;20058;-59
2022/05/26 07:43:18;;;;;;;0.10;0.10;;;;;;;21.98;55.08;100332.22;4995365;28;20165;-59
2022/05/26 07:45:43;;;;;;;0.22;0.10;;;;;;;22.10;55.80;100338.81;4995918;28;20033;-60
2022/05/26 07:48:08;;;;;;;0.30;0.10;;;;;;;22.00;55.59;100333.69;4995244;28;20394;-60
2022/05/26 07:50:34;;;;;;;0.20;0.00;;;;;;;22.03;54.84;100326.97;4995032;28;20026;-59
2022/05/26 07:52:59;;;;;;;0.95;0.38;;;;;;;21.98;55.40;100321.25;4995536;28;20037;-60
2022/05/26 07:55:25;;;;;;;0.15;0.05;;;;;;;22.03;55.93;100321.50;4994948;28;20026;-60
2022/05/26 07:57:50;;;;;;;0.32;0.10;;;;;;;21.96;55.98;100326.09;4995179;28;20362;-59
2022/05/26 08:00:17;;;;;;;0.15;0.10;;;;;;;21.92;55.13;100315.56;4995036;28;20029;-60
2022/05/26 08:02:43;;;;;;;0.30;0.22;;;;;;;21.99;55.72;100309.25;4995054;28;20026;-60
2022/05/26 08:05:09;;;;;;;0.30;0.10;;;;;;;22.02;54.92;100309.72;4994971;28;20377;-59
2022/05/26 08:07:35;;;;;;;0.40;0.17;;;;;;;21.98;55.97;100297.47;4994819;28;20488;-59
2022/05/26 08:10:00;;;;;;;0.30;0.10;;;;;;;22.00;54.94;100302.75;4994903;28;20031;-59
2022/05/26 08:12:26;;;;;;;0.00;0.00;;;;;;;22.01;56.24;100297.09;4994646;28;20105;-60
2022/05/26 08:14:51;;;;;;;0.10;0.10;;;;;;;22.00;55.69;100289.91;4994835;28;20462;-59
2022/05/26 08:17:20;;;;;;;0.00;0.00;;;;;;;22.02;55.22;100292.44;4994753;28;20022;-60
2022/05/26 08:19:46;;;;;;;0.10;0.10;;;;;;;22.05;55.16;100292.06;4994895;28;20033;-58
2022/05/26 08:22:13;;;;;;;0.35;0.20;;;;;;;22.06;55.93;100288.28;4994609;28;20050;-60
2022/05/26 08:24:38;;;;;;;0.32;0.10;;;;;;;22.03;55.98;100283.19;4994603;28;20038;-59
2022/05/26 08:27:04;;;;;;;0.15;0.10;;;;;;;21.97;56.64;100278.53;4994656;28;20076;-60
2022/05/26 08:29:29;;;;;;;0.10;0.10;;;;;;;21.96;55.68;100277.69;4994281;28;20022;-60
2022/05/26 08:31:55;;;;;;;0.35;0.25;;;;;;;22.00;55.39;100269.91;4994795;28;20026;-60
2022/05/26 08:34:20;;;;;;;0.38;0.30;;;;;;;22.01;55.38;100266.13;4994340;28;20426;-60
2022/05/26 08:36:46;;;;;;;0.63;0.10;;;;;;;22.02;56.24;100268.66;4994602;28;20517;-59
2022/05/26 08:39:12;;;;;;;0.00;0.00;;;;;;;22.06;57.34;100266.38;4994376;28;20054;-60
2022/05/26 08:41:42;;;;;;;0.32;0.10;;;;;;;22.06;57.02;100255.44;4994176;28;20068;-59
2022/05/26 08:44:16;;;;;;;0.10;0.10;;;;;;;22.03;55.45;100255.81;4993987;28;20114;-60
2022/05/26 08:46:48;;;;;;;;;;;;;;;21.99;55.11;100249.91;4994532;28;20029;-59
2022/05/26 08:49:44;;;;;;;0.32;0.17;;;;;;;21.93;55.93;100240.63;4994091;28;20008;-60
2022/05/26 08:52:09;;;;;;;0.50;0.30;;;;;;;22.08;56.28;100247.84;4956132;28;20559;-59
2022/05/26 08:54:41;;;;;;;0.10;0.10;;;;;;;21.96;55.92;100244.84;4972109;28;20564;-59
2022/05/26 08:57:12;;;;;;;0.25;0.10;;;;;;;21.93;56.58;100240.63;4972187;28;20360;-60
2022/05/26 08:59:41;;;;;;;0.20;0.00;;;;;;;21.98;55.75;100237.25;4972020;28;20027;-59
2022/05/26 09:02:32;;;;;;;0.00;0.00;;;;;;;22.03;55.08;100233.91;4972205;28;20415;-59
2022/05/26 09:05:04;;;;;;;0.20;0.10;;;;;;;22.02;56.00;100237.72;4971870;28;20497;-60
2022/05/26 09:13:08;;;;;;;0.10;0.10;;;;;;;21.98;55.70;100225.47;4972212;28;20057;-60
2022/05/26 09:15:36;;;;;;;0.52;0.08;;;;;;;22.10;55.66;100216.47;4971635;28;20054;-60
2022/05/26 09:18:17;;;;;;;0.75;0.20;;;;;;;21.98;55.62;100220.00;4972708;28;20530;-59
2022/05/26 09:20:44;;;;;;;0.63;0.20;;;;;;;22.05;55.35;100220.91;4971768;28;20043;-59
2022/05/26 09:23:25;;;;;;;0.43;0.10;;;;;;;22.00;56.00;100220.63;4971742;28;20546;-60
2022/05/26 09:25:53;;;;;;;0.03;0.03;;;;;;;22.07;55.62;100213.31;4971805;28;20117;-59
2022/05/26 09:28:48;;;;;;;0.25;0.10;;;;;;;22.01;55.59;100216.88;4974663;28;20038;-59
2022/05/26 09:31:31;;;;;;;;;;;;;;;22.04;56.39;100213.72;4994117;28;20034;-60
2022/05/26 09:34:05;;;;;;;0.30;0.10;;;;;;;22.04;55.18;100202.75;4993484;28;19952;-59
2022/05/26 09:36:36;;;;;;;0.10;0.10;;;;;;;21.97;56.10;100201.91;4993338;28;20034;-59
2022/05/26 09:39:03;;;;;;;0.63;0.20;;;;;;;22.01;55.29;100203.19;4993364;28;20058;-60
2022/05/26 09:41:28;;;;;;;0.32;0.10;;;;;;;21.99;56.03;100194.31;4993170;28;20053;-59
2022/05/26 09:43:57;;;;;;;0.22;0.20;;;;;;;22.04;55.74;100194.53;4993373;28;20501;-59
2022/05/26 09:46:26;;;;;;;0.20;0.20;;;;;;;22.00;56.57;100194.09;4993393;28;20030;-60
2022/05/26 09:48:57;;;;;;;0.40;0.20;;;;;;;22.05;56.35;100190.78;4993270;28;20373;-59
2022/05/26 09:51:33;;;;;;;0.65;0.20;;;;;;;22.05;56.26;100194.38;4993253;28;20458;-60
2022/05/26 09:53:59;;;;;;;0.75;0.08;;;;;;;22.06;56.21;100187.00;4991793;28;20105;-59
2022/05/26 09:56:40;;;;;;;0.13;0.13;;;;;;;22.09;56.00;100181.09;4992591;28;20447;-60
2022/05/26 09:59:38;;;;;;;0.22;0.20;;;;;;;22.01;56.43;100175.81;4993146;28;20034;-60
2022/05/26 10:02:14;;;;;;;0.40;0.10;;;;;;;22.03;55.91;100173.72;4971505;28;20439;-59
2022/05/26 10:05:05;;;;;;;0.00;0.00;;;;;;;22.02;56.40;100182.97;4971788;28;20034;-56
2022/05/26 10:08:02;;;;;;;1.25;0.40;;;;;;;22.02;56.72;100167.38;4971034;28;20044;-60
2022/05/26 10:10:34;;;;;;;0.20;0.20;;;;;;;22.00;56.23;100180.41;4970945;28;20050;-59
2022/05/26 10:13:40;;;;;;;0.40;0.17;;;;;;;22.03;55.76;100169.06;4971242;28;20078;-59
2022/05/26 10:16:19;;;;;;;0.32;0.08;;;;;;;21.99;55.00;100177.91;4971120;28;20109;-59
2022/05/26 10:18:57;;;;;;;0.17;0.00;;;;;;;22.03;56.22;100168.22;4971122;28;20700;-59
2022/05/26 10:21:31;;;;;;;0.30;0.20;;;;;;;22.11;55.15;100171.63;4970922;28;20125;-59
2022/05/26 10:24:14;;;;;;;;;;;;;;;22.01;55.37;100173.06;4971420;28;20038;-59
2022/05/26 10:26:50;;;;;;;0.45;0.10;;;;;;;22.10;56.10;100169.94;4954776;28;19961;-59
2022/05/26 10:29:52;;;;;;;0.10;0.10;;;;;;;22.01;56.28;100168.44;4970968;28;20028;-59
2022/05/26 10:32:36;;;;;;;0.38;0.10;;;;;;;22.02;55.86;100182.97;4970968;28;20537;-59
2022/05/26 10:35:23;;;;;;;0.17;0.17;;;;;;;22.03;56.56;100181.91;4971053;28;20125;-59
2022/05/26 10:38:07;;;;;;;0.10;0.10;;;;;;;22.13;56.37;100182.34;4976191;28;20053;-61
2022/05/26 10:40:35;;;;;;;1.40;0.17;;;;;;;22.11;55.24;100192.66;4992683;28;20023;-59
2022/05/26 10:43:24;;;;;;;0.17;0.10;;;;;;;22.03;57.00;100190.13;4992780;28;20049;-59
2022/05/26 10:45:52;;;;;;;0.77;0.10;;;;;;;21.99;56.90;100195.16;4992524;28;20134;-59
2022/05/26 10:48:36;;;;;;;0.10;0.10;;;;;;;22.04;55.62;100194.53;4992610;28;20102;-59
2022/05/26 10:51:08;;;;;;;0.38;0.10;;;;;;;22.00;55.97;100193.25;4993426;28;20034;-59
2022/05/26 10:54:14;;;;;;;0.55;0.10;;;;;;;22.03;57.22;100198.34;4992520;28;20044;-59
2022/05/26 10:56:48;;;;;;;0.55;0.10;;;;;;;22.08;55.92;100198.56;4970655;28;20031;-59
2022/05/26 10:59:13;;;;;;;;;;;;;;;22.09;55.82;100208.47;4971200;28;20046;-59
2022/05/26 11:01:45;;;;;;;0.50;0.20;;;;;;;22.05;55.91;100205.31;4970644;28;19910;-59
2022/05/26 11:05:05;;;;;;;0.10;0.08;;;;;;;22.10;54.81;100207.41;4970751;28;20035;-59
2022/05/26 11:07:50;;;;;;;0.17;0.10;;;;;;;22.10;56.00;100196.47;4916019;29;20032;-59
2022/05/26 11:10:29;;;;;;;0.55;0.13;;;;;;;22.05;55.21;100194.38;4916554;29;20083;-59
2022/05/26 11:13:01;;;;;;;0.50;0.30;;;;;;;22.04;55.67;100197.28;4916680;29;20024;-59
2022/05/26 11:18:33;;;;;;;0.10;0.10;;;;;;;22.09;55.89;100190.16;4916487;29;20039;-59
2022/05/26 11:20:59;;;;;;;0.20;0.10;;;;;;;22.14;54.91;100187.59;4916371;29;20033;-59
2022/05/26 11:23:27;;;;;;;1.23;0.13;;;;;;;22.12;56.48;100183.41;4916195;29;20047;-59
2022/05/26 11:26:06;;;;;;;0.20;0.17;;;;;;;22.08;56.69;100184.88;4916696;29;20036;-59
2022/05/26 11:28:44;;;;;;;0.20;0.10;;;;;;;22.08;55.39;100182.16;4916139;29;20544;-59
2022/05/26 11:37:19;;;;;;;0.43;0.08;;;;;;;22.14;55.97;100175.81;4954736;29;20583;-59
2022/05/26 11:39:47;;;;;;;0.98;0.10;;;;;;;22.19;55.38;100176.03;4954373;29;20170;-60
2022/05/26 11:42:26;;;;;;;0.15;0.10;;;;;;;22.15;56.54;100183.81;4989525;28;20363;-59
2022/05/26 11:45:13;;;;;;;0.10;0.10;;;;;;;22.08;55.49;100179.41;4995467;28;20076;-59
2022/05/26 11:47:58;;;;;;;0.00;0.00;;;;;;;22.01;56.71;100175.81;4995247;28;20026;-59
2022/05/26 11:50:27;;;;;;;0.10;0.10;;;;;;;22.12;55.94;100173.28;4995052;28;20034;-59
2022/05/26 11:52:59;;;;;;;0.20;0.20;;;;;;;22.11;55.87;100178.97;4994088;28;20466;-58
2022/05/26 11:55:29;;;;;;;0.20;0.10;;;;;;;22.12;56.62;100173.28;4994862;28;20532;-59
2022/05/26 11:57:55;;;;;;;0.30;0.10;;;;;;;22.13;55.51;100164.03;4993952;28;20105;-59
2022/05/26 12:00:42;;;;;;;0.00;0.00;;;;;;;22.10;56.47;100169.09;4995001;28;20611;-60
2022/05/26 12:03:22;;;;;;;0.43;0.20;;;;;;;22.16;56.10;100168.22;4995122;28;20026;-59
2022/05/26 12:06:04;;;;;;;0.00;0.00;;;;;;;22.08;55.86;100169.31;4995089;28;20101;-58
2022/05/26 12:08:53;;;;;;;0.15;0.10;;;;;;;22.02;55.70;100166.56;4994829;28;20473;-59
2022/05/26 12:11:38;;;;;;;0.10;0.10;;;;;;;22.11;56.51;100166.13;4994703;28;20066;-59
2022/05/26 12:14:05;;;;;;;0.17;0.10;;;;;;;22.07;55.97;100166.78;4994762;28;20027;-59
2022/05/26 12:16:33;;;;;;;0.20;0.20;;;;;;;22.13;55.01;100171.41;4994672;28;20101;-59
2022/05/26 12:19:04;;;;;;;0.32;0.10;;;;;;;22.09;56.09;100168.25;4994203;28;20022;-59
2022/05/26 12:21:29;;;;;;;0.40;0.10;;;;;;;22.09;55.89;100167.41;4994378;28;20117;-59
2022/05/26 12:23:56;;;;;;;0.43;0.00;;;;;;;22.09;55.68;100170.16;4994686;28;20184;-58
2022/05/26 12:26:47;;;;;;;0.08;0.08;;;;;;;22.07;55.92;100164.03;4994506;28;20279;-59
2022/05/26 12:29:51;;;;;;;0.25;0.03;;;;;;;22.14;55.65;100157.50;4994827;28;20026;-59